<?xml version="1.0" encoding="UTF-8" standalone="no" ?>
<gpx xmlns="http://www.topografix.com/GPX/1/1" xmlns:xsi="http://www.w3.org/2001/XMLSchema-instance" xsi:schemaLocation="http://www.topografix.com/GPX/1/1 http://www.topografix.com/GPX/1/1/gpx.xsd" version="1.1" creator="VisuGPX - https://www.visugpx.com">
  <metadata>
    <name>Abbaye St Michel-de-Cuxa, Canal de Bohère, Codalet, Chapelle Sant Joan de Dossorons</name>
    <desc><![CDATA[TOPO sur notre site:
https://randonnees-pyrenees-orientales.e-monsite.com/pages/pyrenees-orientales/conflent-bas/abbaye-st-michel-de-cuxa-canal-de-bohere-codalet-chapelle-sant-joan-de-dossorons.html]]></desc>
  </metadata>
  <trk>
    <name><![CDATA[6422507-Abbaye-St-Michel-de-Cuxa- Canal de Bohère, Codalet]]></name>
    <extensions>
      <line xmlns="http://www.topografix.com/GPX/gpx_style/0/2">
        <color>0000FF</color>
        <width>4</width>
      </line>
    </extensions>
    <trkseg>
      <trkpt lat="42.59504" lon="2.41628">
        <ele>445</ele>
        <time>2022-07-04T14:24:54Z</time>
      </trkpt>
      <trkpt lat="42.59515" lon="2.41704">
        <ele>450</ele>
        <time>2022-07-04T14:26:10Z</time>
      </trkpt>
      <trkpt lat="42.59515" lon="2.41703">
        <ele>450</ele>
        <time>2022-07-04T14:26:11Z</time>
      </trkpt>
      <trkpt lat="42.59509" lon="2.4164">
        <ele>446</ele>
        <time>2022-07-04T14:27:13Z</time>
      </trkpt>
      <trkpt lat="42.59509" lon="2.41633">
        <ele>445</ele>
        <time>2022-07-04T14:27:20Z</time>
      </trkpt>
      <trkpt lat="42.59508" lon="2.41625">
        <ele>445</ele>
        <time>2022-07-04T14:27:28Z</time>
      </trkpt>
      <trkpt lat="42.59506" lon="2.41618">
        <ele>444</ele>
        <time>2022-07-04T14:27:36Z</time>
      </trkpt>
      <trkpt lat="42.59487" lon="2.41626">
        <ele>445</ele>
        <time>2022-07-04T14:28:02Z</time>
      </trkpt>
      <trkpt lat="42.59481" lon="2.41636">
        <ele>446</ele>
        <time>2022-07-04T14:28:15Z</time>
      </trkpt>
      <trkpt lat="42.59468" lon="2.41649">
        <ele>446</ele>
        <time>2022-07-04T14:28:36Z</time>
      </trkpt>
      <trkpt lat="42.59461" lon="2.41657">
        <ele>447</ele>
        <time>2022-07-04T14:28:49Z</time>
      </trkpt>
      <trkpt lat="42.59456" lon="2.41672">
        <ele>447</ele>
        <time>2022-07-04T14:29:05Z</time>
      </trkpt>
      <trkpt lat="42.59453" lon="2.41689">
        <ele>448</ele>
        <time>2022-07-04T14:29:22Z</time>
      </trkpt>
      <trkpt lat="42.59452" lon="2.41691">
        <ele>449</ele>
        <time>2022-07-04T14:29:24Z</time>
      </trkpt>
      <trkpt lat="42.59452" lon="2.4171">
        <ele>450</ele>
        <time>2022-07-04T14:29:43Z</time>
      </trkpt>
      <trkpt lat="42.59452" lon="2.41742">
        <ele>453</ele>
        <time>2022-07-04T14:30:14Z</time>
      </trkpt>
      <trkpt lat="42.59449" lon="2.41765">
        <ele>453</ele>
        <time>2022-07-04T14:30:37Z</time>
      </trkpt>
      <trkpt lat="42.59445" lon="2.41778">
        <ele>453</ele>
        <time>2022-07-04T14:30:51Z</time>
      </trkpt>
      <trkpt lat="42.59445" lon="2.41782">
        <ele>453</ele>
        <time>2022-07-04T14:30:55Z</time>
      </trkpt>
      <trkpt lat="42.59444" lon="2.41811">
        <ele>454</ele>
        <time>2022-07-04T14:31:24Z</time>
      </trkpt>
      <trkpt lat="42.59442" lon="2.41824">
        <ele>454</ele>
        <time>2022-07-04T14:31:37Z</time>
      </trkpt>
      <trkpt lat="42.59446" lon="2.41848">
        <ele>455</ele>
        <time>2022-07-04T14:32:01Z</time>
      </trkpt>
      <trkpt lat="42.59453" lon="2.4187">
        <ele>457</ele>
        <time>2022-07-04T14:32:24Z</time>
      </trkpt>
      <trkpt lat="42.59455" lon="2.41901">
        <ele>460</ele>
        <time>2022-07-04T14:32:55Z</time>
      </trkpt>
      <trkpt lat="42.59454" lon="2.41904">
        <ele>461</ele>
        <time>2022-07-04T14:32:58Z</time>
      </trkpt>
      <trkpt lat="42.59455" lon="2.41904">
        <ele>461</ele>
        <time>2022-07-04T14:33:00Z</time>
      </trkpt>
      <trkpt lat="42.59455" lon="2.41918">
        <ele>462</ele>
        <time>2022-07-04T14:33:13Z</time>
      </trkpt>
      <trkpt lat="42.59435" lon="2.41927">
        <ele>464</ele>
        <time>2022-07-04T14:33:42Z</time>
      </trkpt>
      <trkpt lat="42.59423" lon="2.41933">
        <ele>465</ele>
        <time>2022-07-04T14:33:59Z</time>
      </trkpt>
      <trkpt lat="42.59388" lon="2.41955">
        <ele>469</ele>
        <time>2022-07-04T14:34:50Z</time>
      </trkpt>
      <trkpt lat="42.59372" lon="2.41963">
        <ele>471</ele>
        <time>2022-07-04T14:35:13Z</time>
      </trkpt>
      <trkpt lat="42.5936" lon="2.41968">
        <ele>472</ele>
        <time>2022-07-04T14:35:30Z</time>
      </trkpt>
      <trkpt lat="42.59344" lon="2.41974">
        <ele>472</ele>
        <time>2022-07-04T14:35:52Z</time>
      </trkpt>
      <trkpt lat="42.59329" lon="2.41979">
        <ele>473</ele>
        <time>2022-07-04T14:36:12Z</time>
      </trkpt>
      <trkpt lat="42.59312" lon="2.41986">
        <ele>474</ele>
        <time>2022-07-04T14:36:36Z</time>
      </trkpt>
      <trkpt lat="42.5929" lon="2.41992">
        <ele>474</ele>
        <time>2022-07-04T14:37:06Z</time>
      </trkpt>
      <trkpt lat="42.59274" lon="2.41999">
        <ele>474</ele>
        <time>2022-07-04T14:37:28Z</time>
      </trkpt>
      <trkpt lat="42.59265" lon="2.42004">
        <ele>475</ele>
        <time>2022-07-04T14:37:41Z</time>
      </trkpt>
      <trkpt lat="42.59255" lon="2.42006">
        <ele>474</ele>
        <time>2022-07-04T14:37:55Z</time>
      </trkpt>
      <trkpt lat="42.59239" lon="2.42012">
        <ele>475</ele>
        <time>2022-07-04T14:38:17Z</time>
      </trkpt>
      <trkpt lat="42.59224" lon="2.42026">
        <ele>478</ele>
        <time>2022-07-04T14:38:41Z</time>
      </trkpt>
      <trkpt lat="42.59227" lon="2.42032">
        <ele>479</ele>
        <time>2022-07-04T14:38:48Z</time>
      </trkpt>
      <trkpt lat="42.59236" lon="2.42027">
        <ele>478</ele>
        <time>2022-07-04T14:39:01Z</time>
      </trkpt>
      <trkpt lat="42.59247" lon="2.42026">
        <ele>478</ele>
        <time>2022-07-04T14:39:16Z</time>
      </trkpt>
      <trkpt lat="42.5926" lon="2.42026">
        <ele>479</ele>
        <time>2022-07-04T14:39:33Z</time>
      </trkpt>
      <trkpt lat="42.59274" lon="2.42022">
        <ele>479</ele>
        <time>2022-07-04T14:39:53Z</time>
      </trkpt>
      <trkpt lat="42.59298" lon="2.42019">
        <ele>480</ele>
        <time>2022-07-04T14:40:25Z</time>
      </trkpt>
      <trkpt lat="42.59313" lon="2.42014">
        <ele>479</ele>
        <time>2022-07-04T14:40:45Z</time>
      </trkpt>
      <trkpt lat="42.5933" lon="2.4201">
        <ele>479</ele>
        <time>2022-07-04T14:41:08Z</time>
      </trkpt>
      <trkpt lat="42.59351" lon="2.42008">
        <ele>480</ele>
        <time>2022-07-04T14:41:36Z</time>
      </trkpt>
      <trkpt lat="42.59369" lon="2.42006">
        <ele>480</ele>
        <time>2022-07-04T14:42:01Z</time>
      </trkpt>
      <trkpt lat="42.59381" lon="2.42006">
        <ele>480</ele>
        <time>2022-07-04T14:42:17Z</time>
      </trkpt>
      <trkpt lat="42.59382" lon="2.42007">
        <ele>480</ele>
        <time>2022-07-04T14:42:18Z</time>
      </trkpt>
      <trkpt lat="42.59396" lon="2.42009">
        <ele>481</ele>
        <time>2022-07-04T14:42:37Z</time>
      </trkpt>
      <trkpt lat="42.5941" lon="2.42012">
        <ele>483</ele>
        <time>2022-07-04T14:42:56Z</time>
      </trkpt>
      <trkpt lat="42.59419" lon="2.42017">
        <ele>485</ele>
        <time>2022-07-04T14:43:09Z</time>
      </trkpt>
      <trkpt lat="42.59429" lon="2.42025">
        <ele>489</ele>
        <time>2022-07-04T14:43:24Z</time>
      </trkpt>
      <trkpt lat="42.59431" lon="2.42025">
        <ele>489</ele>
        <time>2022-07-04T14:43:27Z</time>
      </trkpt>
      <trkpt lat="42.59441" lon="2.42021">
        <ele>489</ele>
        <time>2022-07-04T14:43:41Z</time>
      </trkpt>
      <trkpt lat="42.59439" lon="2.4202">
        <ele>488</ele>
        <time>2022-07-04T14:43:44Z</time>
      </trkpt>
      <trkpt lat="42.59438" lon="2.4202">
        <ele>488</ele>
        <time>2022-07-04T14:43:45Z</time>
      </trkpt>
      <trkpt lat="42.59438" lon="2.42016">
        <ele>487</ele>
        <time>2022-07-04T14:43:49Z</time>
      </trkpt>
      <trkpt lat="42.59444" lon="2.42">
        <ele>483</ele>
        <time>2022-07-04T14:44:07Z</time>
      </trkpt>
      <trkpt lat="42.5946" lon="2.41987">
        <ele>481</ele>
        <time>2022-07-04T14:44:32Z</time>
      </trkpt>
      <trkpt lat="42.59461" lon="2.41987">
        <ele>481</ele>
        <time>2022-07-04T14:44:33Z</time>
      </trkpt>
      <trkpt lat="42.59463" lon="2.41987">
        <ele>482</ele>
        <time>2022-07-04T14:44:36Z</time>
      </trkpt>
      <trkpt lat="42.59467" lon="2.41985">
        <ele>481</ele>
        <time>2022-07-04T14:44:41Z</time>
      </trkpt>
      <trkpt lat="42.59465" lon="2.41977">
        <ele>479</ele>
        <time>2022-07-04T14:44:50Z</time>
      </trkpt>
      <trkpt lat="42.59471" lon="2.41979">
        <ele>480</ele>
        <time>2022-07-04T14:44:58Z</time>
      </trkpt>
      <trkpt lat="42.59471" lon="2.41983">
        <ele>481</ele>
        <time>2022-07-04T14:45:02Z</time>
      </trkpt>
      <trkpt lat="42.59487" lon="2.41977">
        <ele>481</ele>
        <time>2022-07-04T14:45:24Z</time>
      </trkpt>
      <trkpt lat="42.59522" lon="2.41979">
        <ele>484</ele>
        <time>2022-07-04T14:46:11Z</time>
      </trkpt>
      <trkpt lat="42.59539" lon="2.41975">
        <ele>483</ele>
        <time>2022-07-04T14:46:34Z</time>
      </trkpt>
      <trkpt lat="42.59545" lon="2.41975">
        <ele>483</ele>
        <time>2022-07-04T14:46:42Z</time>
      </trkpt>
      <trkpt lat="42.59565" lon="2.41969">
        <ele>482</ele>
        <time>2022-07-04T14:47:09Z</time>
      </trkpt>
      <trkpt lat="42.5958" lon="2.41965">
        <ele>481</ele>
        <time>2022-07-04T14:47:29Z</time>
      </trkpt>
      <trkpt lat="42.59591" lon="2.41963">
        <ele>480</ele>
        <time>2022-07-04T14:47:44Z</time>
      </trkpt>
      <trkpt lat="42.59602" lon="2.41963">
        <ele>480</ele>
        <time>2022-07-04T14:47:59Z</time>
      </trkpt>
      <trkpt lat="42.59618" lon="2.41973">
        <ele>483</ele>
        <time>2022-07-04T14:48:22Z</time>
      </trkpt>
      <trkpt lat="42.59623" lon="2.4198">
        <ele>485</ele>
        <time>2022-07-04T14:48:32Z</time>
      </trkpt>
      <trkpt lat="42.59632" lon="2.41978">
        <ele>485</ele>
        <time>2022-07-04T14:48:44Z</time>
      </trkpt>
      <trkpt lat="42.59641" lon="2.41971">
        <ele>483</ele>
        <time>2022-07-04T14:48:58Z</time>
      </trkpt>
      <trkpt lat="42.59661" lon="2.41962">
        <ele>480</ele>
        <time>2022-07-04T14:49:26Z</time>
      </trkpt>
      <trkpt lat="42.59663" lon="2.41962">
        <ele>480</ele>
        <time>2022-07-04T14:49:29Z</time>
      </trkpt>
      <trkpt lat="42.59682" lon="2.41963">
        <ele>480</ele>
        <time>2022-07-04T14:49:54Z</time>
      </trkpt>
      <trkpt lat="42.59686" lon="2.41964">
        <ele>481</ele>
        <time>2022-07-04T14:50:00Z</time>
      </trkpt>
      <trkpt lat="42.59696" lon="2.41965">
        <ele>481</ele>
        <time>2022-07-04T14:50:13Z</time>
      </trkpt>
      <trkpt lat="42.59715" lon="2.4197">
        <ele>483</ele>
        <time>2022-07-04T14:50:39Z</time>
      </trkpt>
      <trkpt lat="42.59728" lon="2.4198">
        <ele>486</ele>
        <time>2022-07-04T14:50:59Z</time>
      </trkpt>
      <trkpt lat="42.59747" lon="2.41985">
        <ele>487</ele>
        <time>2022-07-04T14:51:25Z</time>
      </trkpt>
      <trkpt lat="42.59759" lon="2.41976">
        <ele>485</ele>
        <time>2022-07-04T14:51:43Z</time>
      </trkpt>
      <trkpt lat="42.59765" lon="2.41973">
        <ele>484</ele>
        <time>2022-07-04T14:51:51Z</time>
      </trkpt>
      <trkpt lat="42.59781" lon="2.41967">
        <ele>482</ele>
        <time>2022-07-04T14:52:13Z</time>
      </trkpt>
      <trkpt lat="42.59788" lon="2.41965">
        <ele>481</ele>
        <time>2022-07-04T14:52:23Z</time>
      </trkpt>
      <trkpt lat="42.59808" lon="2.41962">
        <ele>480</ele>
        <time>2022-07-04T14:52:50Z</time>
      </trkpt>
      <trkpt lat="42.59817" lon="2.41963">
        <ele>480</ele>
        <time>2022-07-04T14:53:02Z</time>
      </trkpt>
      <trkpt lat="42.59822" lon="2.41964">
        <ele>480</ele>
        <time>2022-07-04T14:53:09Z</time>
      </trkpt>
      <trkpt lat="42.59845" lon="2.41968">
        <ele>481</ele>
        <time>2022-07-04T14:53:40Z</time>
      </trkpt>
      <trkpt lat="42.59865" lon="2.41977">
        <ele>483</ele>
        <time>2022-07-04T14:54:08Z</time>
      </trkpt>
      <trkpt lat="42.59874" lon="2.41982">
        <ele>484</ele>
        <time>2022-07-04T14:54:21Z</time>
      </trkpt>
      <trkpt lat="42.59903" lon="2.41996">
        <ele>487</ele>
        <time>2022-07-04T14:55:02Z</time>
      </trkpt>
      <trkpt lat="42.59915" lon="2.41996">
        <ele>487</ele>
        <time>2022-07-04T14:55:18Z</time>
      </trkpt>
      <trkpt lat="42.59935" lon="2.41995">
        <ele>487</ele>
        <time>2022-07-04T14:55:45Z</time>
      </trkpt>
      <trkpt lat="42.59953" lon="2.41995">
        <ele>488</ele>
        <time>2022-07-04T14:56:09Z</time>
      </trkpt>
      <trkpt lat="42.59979" lon="2.41982">
        <ele>483</ele>
        <time>2022-07-04T14:56:46Z</time>
      </trkpt>
      <trkpt lat="42.59988" lon="2.41981">
        <ele>483</ele>
        <time>2022-07-04T14:56:58Z</time>
      </trkpt>
      <trkpt lat="42.60008" lon="2.41983">
        <ele>485</ele>
        <time>2022-07-04T14:57:24Z</time>
      </trkpt>
      <trkpt lat="42.60019" lon="2.41977">
        <ele>483</ele>
        <time>2022-07-04T14:57:40Z</time>
      </trkpt>
      <trkpt lat="42.60028" lon="2.4198">
        <ele>485</ele>
        <time>2022-07-04T14:57:53Z</time>
      </trkpt>
      <trkpt lat="42.60034" lon="2.4198">
        <ele>486</ele>
        <time>2022-07-04T14:58:01Z</time>
      </trkpt>
      <trkpt lat="42.60045" lon="2.41977">
        <ele>486</ele>
        <time>2022-07-04T14:58:15Z</time>
      </trkpt>
      <trkpt lat="42.60062" lon="2.41963">
        <ele>482</ele>
        <time>2022-07-04T14:58:42Z</time>
      </trkpt>
      <trkpt lat="42.60067" lon="2.41961">
        <ele>482</ele>
        <time>2022-07-04T14:58:49Z</time>
      </trkpt>
      <trkpt lat="42.60083" lon="2.41948">
        <ele>479</ele>
        <time>2022-07-04T14:59:14Z</time>
      </trkpt>
      <trkpt lat="42.6012" lon="2.41937">
        <ele>474</ele>
        <time>2022-07-04T15:00:04Z</time>
      </trkpt>
      <trkpt lat="42.60138" lon="2.41936">
        <ele>472</ele>
        <time>2022-07-04T15:00:28Z</time>
      </trkpt>
      <trkpt lat="42.60148" lon="2.41938">
        <ele>473</ele>
        <time>2022-07-04T15:00:42Z</time>
      </trkpt>
      <trkpt lat="42.60155" lon="2.41941">
        <ele>474</ele>
        <time>2022-07-04T15:00:52Z</time>
      </trkpt>
      <trkpt lat="42.6016" lon="2.41942">
        <ele>474</ele>
        <time>2022-07-04T15:00:58Z</time>
      </trkpt>
      <trkpt lat="42.60185" lon="2.41941">
        <ele>472</ele>
        <time>2022-07-04T15:01:32Z</time>
      </trkpt>
      <trkpt lat="42.60201" lon="2.41943">
        <ele>473</ele>
        <time>2022-07-04T15:01:53Z</time>
      </trkpt>
      <trkpt lat="42.60217" lon="2.41944">
        <ele>472</ele>
        <time>2022-07-04T15:02:15Z</time>
      </trkpt>
      <trkpt lat="42.60231" lon="2.4195">
        <ele>473</ele>
        <time>2022-07-04T15:02:34Z</time>
      </trkpt>
      <trkpt lat="42.60247" lon="2.41966">
        <ele>476</ele>
        <time>2022-07-04T15:03:01Z</time>
      </trkpt>
      <trkpt lat="42.60258" lon="2.41983">
        <ele>478</ele>
        <time>2022-07-04T15:03:23Z</time>
      </trkpt>
      <trkpt lat="42.60264" lon="2.41998">
        <ele>481</ele>
        <time>2022-07-04T15:03:40Z</time>
      </trkpt>
      <trkpt lat="42.60265" lon="2.42003">
        <ele>481</ele>
        <time>2022-07-04T15:03:45Z</time>
      </trkpt>
      <trkpt lat="42.60266" lon="2.42005">
        <ele>481</ele>
        <time>2022-07-04T15:03:47Z</time>
      </trkpt>
      <trkpt lat="42.60275" lon="2.4201">
        <ele>480</ele>
        <time>2022-07-04T15:04:00Z</time>
      </trkpt>
      <trkpt lat="42.60282" lon="2.42007">
        <ele>479</ele>
        <time>2022-07-04T15:04:10Z</time>
      </trkpt>
      <trkpt lat="42.60285" lon="2.42005">
        <ele>478</ele>
        <time>2022-07-04T15:04:14Z</time>
      </trkpt>
      <trkpt lat="42.60299" lon="2.41998">
        <ele>476</ele>
        <time>2022-07-04T15:04:34Z</time>
      </trkpt>
      <trkpt lat="42.60315" lon="2.4199">
        <ele>472</ele>
        <time>2022-07-04T15:04:57Z</time>
      </trkpt>
      <trkpt lat="42.60318" lon="2.4199">
        <ele>472</ele>
        <time>2022-07-04T15:05:01Z</time>
      </trkpt>
      <trkpt lat="42.60332" lon="2.41986">
        <ele>470</ele>
        <time>2022-07-04T15:05:20Z</time>
      </trkpt>
      <trkpt lat="42.60363" lon="2.41972">
        <ele>466</ele>
        <time>2022-07-04T15:06:04Z</time>
      </trkpt>
      <trkpt lat="42.60368" lon="2.41972">
        <ele>466</ele>
        <time>2022-07-04T15:06:10Z</time>
      </trkpt>
      <trkpt lat="42.60385" lon="2.41969">
        <ele>465</ele>
        <time>2022-07-04T15:06:33Z</time>
      </trkpt>
      <trkpt lat="42.60398" lon="2.41963">
        <ele>463</ele>
        <time>2022-07-04T15:06:52Z</time>
      </trkpt>
      <trkpt lat="42.6042" lon="2.41956">
        <ele>462</ele>
        <time>2022-07-04T15:07:22Z</time>
      </trkpt>
      <trkpt lat="42.60439" lon="2.41953">
        <ele>460</ele>
        <time>2022-07-04T15:07:47Z</time>
      </trkpt>
      <trkpt lat="42.60457" lon="2.41952">
        <ele>458</ele>
        <time>2022-07-04T15:08:11Z</time>
      </trkpt>
      <trkpt lat="42.6047" lon="2.41951">
        <ele>457</ele>
        <time>2022-07-04T15:08:29Z</time>
      </trkpt>
      <trkpt lat="42.60503" lon="2.41951">
        <ele>454</ele>
        <time>2022-07-04T15:09:13Z</time>
      </trkpt>
      <trkpt lat="42.60523" lon="2.41952">
        <ele>453</ele>
        <time>2022-07-04T15:09:39Z</time>
      </trkpt>
      <trkpt lat="42.60525" lon="2.41951">
        <ele>453</ele>
        <time>2022-07-04T15:09:42Z</time>
      </trkpt>
      <trkpt lat="42.60549" lon="2.4195">
        <ele>452</ele>
        <time>2022-07-04T15:10:14Z</time>
      </trkpt>
      <trkpt lat="42.60567" lon="2.4195">
        <ele>451</ele>
        <time>2022-07-04T15:10:38Z</time>
      </trkpt>
      <trkpt lat="42.60589" lon="2.41951">
        <ele>450</ele>
        <time>2022-07-04T15:11:08Z</time>
      </trkpt>
      <trkpt lat="42.60609" lon="2.41949">
        <ele>449</ele>
        <time>2022-07-04T15:11:35Z</time>
      </trkpt>
      <trkpt lat="42.60627" lon="2.41951">
        <ele>447</ele>
        <time>2022-07-04T15:11:59Z</time>
      </trkpt>
      <trkpt lat="42.60634" lon="2.41949">
        <ele>447</ele>
        <time>2022-07-04T15:12:08Z</time>
      </trkpt>
      <trkpt lat="42.60641" lon="2.41949">
        <ele>446</ele>
        <time>2022-07-04T15:12:18Z</time>
      </trkpt>
      <trkpt lat="42.60657" lon="2.41949">
        <ele>445</ele>
        <time>2022-07-04T15:12:39Z</time>
      </trkpt>
      <trkpt lat="42.6069" lon="2.41946">
        <ele>443</ele>
        <time>2022-07-04T15:13:23Z</time>
      </trkpt>
      <trkpt lat="42.60699" lon="2.41945">
        <ele>443</ele>
        <time>2022-07-04T15:13:35Z</time>
      </trkpt>
      <trkpt lat="42.60726" lon="2.41946">
        <ele>442</ele>
        <time>2022-07-04T15:14:11Z</time>
      </trkpt>
      <trkpt lat="42.60743" lon="2.41946">
        <ele>441</ele>
        <time>2022-07-04T15:14:34Z</time>
      </trkpt>
      <trkpt lat="42.60781" lon="2.41946">
        <ele>440</ele>
        <time>2022-07-04T15:15:25Z</time>
      </trkpt>
      <trkpt lat="42.60793" lon="2.41946">
        <ele>439</ele>
        <time>2022-07-04T15:15:41Z</time>
      </trkpt>
      <trkpt lat="42.60805" lon="2.41946">
        <ele>438</ele>
        <time>2022-07-04T15:15:57Z</time>
      </trkpt>
      <trkpt lat="42.60807" lon="2.41944">
        <ele>438</ele>
        <time>2022-07-04T15:16:00Z</time>
      </trkpt>
      <trkpt lat="42.60827" lon="2.41939">
        <ele>437</ele>
        <time>2022-07-04T15:16:27Z</time>
      </trkpt>
      <trkpt lat="42.60845" lon="2.4194">
        <ele>436</ele>
        <time>2022-07-04T15:16:51Z</time>
      </trkpt>
      <trkpt lat="42.60853" lon="2.4194">
        <ele>435</ele>
        <time>2022-07-04T15:17:02Z</time>
      </trkpt>
      <trkpt lat="42.60869" lon="2.41939">
        <ele>434</ele>
        <time>2022-07-04T15:17:23Z</time>
      </trkpt>
      <trkpt lat="42.60874" lon="2.4194">
        <ele>434</ele>
        <time>2022-07-04T15:17:30Z</time>
      </trkpt>
      <trkpt lat="42.60883" lon="2.41939">
        <ele>433</ele>
        <time>2022-07-04T15:17:42Z</time>
      </trkpt>
      <trkpt lat="42.60887" lon="2.4194">
        <ele>433</ele>
        <time>2022-07-04T15:17:47Z</time>
      </trkpt>
      <trkpt lat="42.60904" lon="2.4194">
        <ele>432</ele>
        <time>2022-07-04T15:18:10Z</time>
      </trkpt>
      <trkpt lat="42.60925" lon="2.41942">
        <ele>429</ele>
        <time>2022-07-04T15:18:38Z</time>
      </trkpt>
      <trkpt lat="42.60932" lon="2.41946">
        <ele>429</ele>
        <time>2022-07-04T15:18:48Z</time>
      </trkpt>
      <trkpt lat="42.60937" lon="2.41949">
        <ele>428</ele>
        <time>2022-07-04T15:18:55Z</time>
      </trkpt>
      <trkpt lat="42.60946" lon="2.41952">
        <ele>427</ele>
        <time>2022-07-04T15:19:08Z</time>
      </trkpt>
      <trkpt lat="42.60957" lon="2.41951">
        <ele>425</ele>
        <time>2022-07-04T15:19:23Z</time>
      </trkpt>
      <trkpt lat="42.60966" lon="2.41945">
        <ele>423</ele>
        <time>2022-07-04T15:19:36Z</time>
      </trkpt>
      <trkpt lat="42.60977" lon="2.41944">
        <ele>421</ele>
        <time>2022-07-04T15:19:51Z</time>
      </trkpt>
      <trkpt lat="42.60987" lon="2.41939">
        <ele>419</ele>
        <time>2022-07-04T15:20:05Z</time>
      </trkpt>
      <trkpt lat="42.60994" lon="2.41934">
        <ele>418</ele>
        <time>2022-07-04T15:20:15Z</time>
      </trkpt>
      <trkpt lat="42.60996" lon="2.41931">
        <ele>417</ele>
        <time>2022-07-04T15:20:19Z</time>
      </trkpt>
      <trkpt lat="42.60994" lon="2.41932">
        <ele>417</ele>
        <time>2022-07-04T15:20:22Z</time>
      </trkpt>
      <trkpt lat="42.60997" lon="2.41933">
        <ele>417</ele>
        <time>2022-07-04T15:20:26Z</time>
      </trkpt>
      <trkpt lat="42.60996" lon="2.41932">
        <ele>417</ele>
        <time>2022-07-04T15:20:28Z</time>
      </trkpt>
      <trkpt lat="42.60996" lon="2.41933">
        <ele>417</ele>
        <time>2022-07-04T15:20:29Z</time>
      </trkpt>
      <trkpt lat="42.60994" lon="2.41934">
        <ele>418</ele>
        <time>2022-07-04T15:20:32Z</time>
      </trkpt>
      <trkpt lat="42.60995" lon="2.4193">
        <ele>417</ele>
        <time>2022-07-04T15:20:36Z</time>
      </trkpt>
      <trkpt lat="42.60997" lon="2.41933">
        <ele>417</ele>
        <time>2022-07-04T15:20:40Z</time>
      </trkpt>
      <trkpt lat="42.60999" lon="2.41926">
        <ele>416</ele>
        <time>2022-07-04T15:20:47Z</time>
      </trkpt>
      <trkpt lat="42.60998" lon="2.41924">
        <ele>416</ele>
        <time>2022-07-04T15:20:50Z</time>
      </trkpt>
      <trkpt lat="42.60998" lon="2.41923">
        <ele>416</ele>
        <time>2022-07-04T15:20:51Z</time>
      </trkpt>
      <trkpt lat="42.60997" lon="2.41924">
        <ele>416</ele>
        <time>2022-07-04T15:20:52Z</time>
      </trkpt>
      <trkpt lat="42.60998" lon="2.41921">
        <ele>416</ele>
        <time>2022-07-04T15:20:56Z</time>
      </trkpt>
      <trkpt lat="42.60997" lon="2.41921">
        <ele>416</ele>
        <time>2022-07-04T15:20:57Z</time>
      </trkpt>
      <trkpt lat="42.60998" lon="2.41922">
        <ele>416</ele>
        <time>2022-07-04T15:20:59Z</time>
      </trkpt>
      <trkpt lat="42.60998" lon="2.41926">
        <ele>416</ele>
        <time>2022-07-04T15:21:03Z</time>
      </trkpt>
      <trkpt lat="42.60999" lon="2.41927">
        <ele>416</ele>
        <time>2022-07-04T15:21:04Z</time>
      </trkpt>
      <trkpt lat="42.61" lon="2.41927">
        <ele>416</ele>
        <time>2022-07-04T15:21:05Z</time>
      </trkpt>
      <trkpt lat="42.60998" lon="2.41925">
        <ele>416</ele>
        <time>2022-07-04T15:21:09Z</time>
      </trkpt>
      <trkpt lat="42.60999" lon="2.41925">
        <ele>416</ele>
        <time>2022-07-04T15:21:10Z</time>
      </trkpt>
      <trkpt lat="42.60998" lon="2.41926">
        <ele>416</ele>
        <time>2022-07-04T15:21:12Z</time>
      </trkpt>
      <trkpt lat="42.61" lon="2.41925">
        <ele>416</ele>
        <time>2022-07-04T15:21:15Z</time>
      </trkpt>
      <trkpt lat="42.61" lon="2.41926">
        <ele>416</ele>
        <time>2022-07-04T15:21:16Z</time>
      </trkpt>
      <trkpt lat="42.60998" lon="2.41932">
        <ele>417</ele>
        <time>2022-07-04T15:21:22Z</time>
      </trkpt>
      <trkpt lat="42.60997" lon="2.41934">
        <ele>417</ele>
        <time>2022-07-04T15:21:24Z</time>
      </trkpt>
      <trkpt lat="42.60996" lon="2.41933">
        <ele>417</ele>
        <time>2022-07-04T15:21:26Z</time>
      </trkpt>
      <trkpt lat="42.60994" lon="2.41933">
        <ele>418</ele>
        <time>2022-07-04T15:21:29Z</time>
      </trkpt>
      <trkpt lat="42.60999" lon="2.4193">
        <ele>416</ele>
        <time>2022-07-04T15:21:36Z</time>
      </trkpt>
      <trkpt lat="42.61003" lon="2.41924">
        <ele>415</ele>
        <time>2022-07-04T15:21:44Z</time>
      </trkpt>
      <trkpt lat="42.61005" lon="2.41921">
        <ele>414</ele>
        <time>2022-07-04T15:21:48Z</time>
      </trkpt>
      <trkpt lat="42.61009" lon="2.41923">
        <ele>413</ele>
        <time>2022-07-04T15:21:54Z</time>
      </trkpt>
      <trkpt lat="42.61018" lon="2.4192">
        <ele>411</ele>
        <time>2022-07-04T15:22:06Z</time>
      </trkpt>
      <trkpt lat="42.61029" lon="2.41909">
        <ele>407</ele>
        <time>2022-07-04T15:22:24Z</time>
      </trkpt>
      <trkpt lat="42.61041" lon="2.41902">
        <ele>403</ele>
        <time>2022-07-04T15:22:42Z</time>
      </trkpt>
      <trkpt lat="42.61048" lon="2.41892">
        <ele>401</ele>
        <time>2022-07-04T15:22:55Z</time>
      </trkpt>
      <trkpt lat="42.61067" lon="2.4187">
        <ele>394</ele>
        <time>2022-07-04T15:23:29Z</time>
      </trkpt>
      <trkpt lat="42.6108" lon="2.41856">
        <ele>391</ele>
        <time>2022-07-04T15:23:51Z</time>
      </trkpt>
      <trkpt lat="42.61093" lon="2.41836">
        <ele>387</ele>
        <time>2022-07-04T15:24:17Z</time>
      </trkpt>
      <trkpt lat="42.61104" lon="2.41826">
        <ele>386</ele>
        <time>2022-07-04T15:24:35Z</time>
      </trkpt>
      <trkpt lat="42.61113" lon="2.41816">
        <ele>384</ele>
        <time>2022-07-04T15:24:50Z</time>
      </trkpt>
      <trkpt lat="42.61105" lon="2.41803">
        <ele>384</ele>
        <time>2022-07-04T15:25:07Z</time>
      </trkpt>
      <trkpt lat="42.61098" lon="2.41791">
        <ele>384</ele>
        <time>2022-07-04T15:25:22Z</time>
      </trkpt>
      <trkpt lat="42.61094" lon="2.41786">
        <ele>384</ele>
        <time>2022-07-04T15:25:29Z</time>
      </trkpt>
      <trkpt lat="42.61081" lon="2.41771">
        <ele>385</ele>
        <time>2022-07-04T15:25:52Z</time>
      </trkpt>
      <trkpt lat="42.61066" lon="2.41756">
        <ele>385</ele>
        <time>2022-07-04T15:26:17Z</time>
      </trkpt>
      <trkpt lat="42.61052" lon="2.41737">
        <ele>385</ele>
        <time>2022-07-04T15:26:43Z</time>
      </trkpt>
      <trkpt lat="42.61043" lon="2.41724">
        <ele>385</ele>
        <time>2022-07-04T15:27:01Z</time>
      </trkpt>
      <trkpt lat="42.61042" lon="2.41722">
        <ele>385</ele>
        <time>2022-07-04T15:27:03Z</time>
      </trkpt>
      <trkpt lat="42.61035" lon="2.41698">
        <ele>383</ele>
        <time>2022-07-04T15:27:28Z</time>
      </trkpt>
      <trkpt lat="42.61028" lon="2.41675">
        <ele>382</ele>
        <time>2022-07-04T15:27:53Z</time>
      </trkpt>
      <trkpt lat="42.6102" lon="2.41657">
        <ele>381</ele>
        <time>2022-07-04T15:28:13Z</time>
      </trkpt>
      <trkpt lat="42.61027" lon="2.41644">
        <ele>380</ele>
        <time>2022-07-04T15:28:29Z</time>
      </trkpt>
      <trkpt lat="42.61027" lon="2.41643">
        <ele>380</ele>
        <time>2022-07-04T15:28:30Z</time>
      </trkpt>
      <trkpt lat="42.61034" lon="2.41626">
        <ele>379</ele>
        <time>2022-07-04T15:28:49Z</time>
      </trkpt>
      <trkpt lat="42.61037" lon="2.41621">
        <ele>378</ele>
        <time>2022-07-04T15:28:56Z</time>
      </trkpt>
      <trkpt lat="42.61037" lon="2.41623">
        <ele>378</ele>
        <time>2022-07-04T15:28:58Z</time>
      </trkpt>
      <trkpt lat="42.61056" lon="2.41624">
        <ele>377</ele>
        <time>2022-07-04T15:29:23Z</time>
      </trkpt>
      <trkpt lat="42.61069" lon="2.41622">
        <ele>376</ele>
        <time>2022-07-04T15:29:40Z</time>
      </trkpt>
      <trkpt lat="42.61072" lon="2.41621">
        <ele>376</ele>
        <time>2022-07-04T15:29:45Z</time>
      </trkpt>
      <trkpt lat="42.61068" lon="2.41624">
        <ele>376</ele>
        <time>2022-07-04T15:29:51Z</time>
      </trkpt>
      <trkpt lat="42.61067" lon="2.41624">
        <ele>377</ele>
        <time>2022-07-04T15:29:52Z</time>
      </trkpt>
      <trkpt lat="42.61068" lon="2.41621">
        <ele>376</ele>
        <time>2022-07-04T15:29:55Z</time>
      </trkpt>
      <trkpt lat="42.6107" lon="2.41621">
        <ele>376</ele>
        <time>2022-07-04T15:29:58Z</time>
      </trkpt>
      <trkpt lat="42.6107" lon="2.41617">
        <ele>376</ele>
        <time>2022-07-04T15:30:02Z</time>
      </trkpt>
      <trkpt lat="42.6107" lon="2.41603">
        <ele>375</ele>
        <time>2022-07-04T15:30:16Z</time>
      </trkpt>
      <trkpt lat="42.61067" lon="2.41586">
        <ele>374</ele>
        <time>2022-07-04T15:30:33Z</time>
      </trkpt>
      <trkpt lat="42.61063" lon="2.41566">
        <ele>373</ele>
        <time>2022-07-04T15:30:53Z</time>
      </trkpt>
      <trkpt lat="42.61059" lon="2.41541">
        <ele>372</ele>
        <time>2022-07-04T15:31:18Z</time>
      </trkpt>
      <trkpt lat="42.61061" lon="2.41514">
        <ele>370</ele>
        <time>2022-07-04T15:31:45Z</time>
      </trkpt>
      <trkpt lat="42.61059" lon="2.41493">
        <ele>369</ele>
        <time>2022-07-04T15:32:06Z</time>
      </trkpt>
      <trkpt lat="42.6105" lon="2.41479">
        <ele>369</ele>
        <time>2022-07-04T15:32:24Z</time>
      </trkpt>
      <trkpt lat="42.61046" lon="2.41478">
        <ele>369</ele>
        <time>2022-07-04T15:32:29Z</time>
      </trkpt>
      <trkpt lat="42.61043" lon="2.41476">
        <ele>369</ele>
        <time>2022-07-04T15:32:34Z</time>
      </trkpt>
      <trkpt lat="42.61035" lon="2.41472">
        <ele>369</ele>
        <time>2022-07-04T15:32:45Z</time>
      </trkpt>
      <trkpt lat="42.61031" lon="2.41467">
        <ele>369</ele>
        <time>2022-07-04T15:32:52Z</time>
      </trkpt>
      <trkpt lat="42.61029" lon="2.4145">
        <ele>369</ele>
        <time>2022-07-04T15:33:09Z</time>
      </trkpt>
      <trkpt lat="42.6103" lon="2.4144">
        <ele>369</ele>
        <time>2022-07-04T15:33:19Z</time>
      </trkpt>
      <trkpt lat="42.61041" lon="2.41418">
        <ele>368</ele>
        <time>2022-07-04T15:33:45Z</time>
      </trkpt>
      <trkpt lat="42.61045" lon="2.41412">
        <ele>368</ele>
        <time>2022-07-04T15:33:53Z</time>
      </trkpt>
      <trkpt lat="42.61055" lon="2.41411">
        <ele>368</ele>
        <time>2022-07-04T15:34:07Z</time>
      </trkpt>
      <trkpt lat="42.61066" lon="2.41416">
        <ele>366</ele>
        <time>2022-07-04T15:34:22Z</time>
      </trkpt>
      <trkpt lat="42.6107" lon="2.41417">
        <ele>366</ele>
        <time>2022-07-04T15:34:28Z</time>
      </trkpt>
      <trkpt lat="42.61078" lon="2.41421">
        <ele>366</ele>
        <time>2022-07-04T15:34:39Z</time>
      </trkpt>
      <trkpt lat="42.61085" lon="2.41424">
        <ele>365</ele>
        <time>2022-07-04T15:34:49Z</time>
      </trkpt>
      <trkpt lat="42.61101" lon="2.41425">
        <ele>365</ele>
        <time>2022-07-04T15:35:10Z</time>
      </trkpt>
      <trkpt lat="42.61109" lon="2.41424">
        <ele>364</ele>
        <time>2022-07-04T15:35:21Z</time>
      </trkpt>
      <trkpt lat="42.6112" lon="2.41414">
        <ele>363</ele>
        <time>2022-07-04T15:35:39Z</time>
      </trkpt>
      <trkpt lat="42.61121" lon="2.41414">
        <ele>363</ele>
        <time>2022-07-04T15:35:40Z</time>
      </trkpt>
      <trkpt lat="42.61127" lon="2.41408">
        <ele>363</ele>
        <time>2022-07-04T15:35:50Z</time>
      </trkpt>
      <trkpt lat="42.61126" lon="2.41407">
        <ele>364</ele>
        <time>2022-07-04T15:35:51Z</time>
      </trkpt>
      <trkpt lat="42.61119" lon="2.4138">
        <ele>366</ele>
        <time>2022-07-04T15:36:20Z</time>
      </trkpt>
      <trkpt lat="42.61122" lon="2.41353">
        <ele>367</ele>
        <time>2022-07-04T15:36:46Z</time>
      </trkpt>
      <trkpt lat="42.61125" lon="2.41323">
        <ele>369</ele>
        <time>2022-07-04T15:37:16Z</time>
      </trkpt>
      <trkpt lat="42.61126" lon="2.41313">
        <ele>369</ele>
        <time>2022-07-04T15:37:26Z</time>
      </trkpt>
      <trkpt lat="42.61128" lon="2.41294">
        <ele>370</ele>
        <time>2022-07-04T15:37:45Z</time>
      </trkpt>
      <trkpt lat="42.61121" lon="2.41265">
        <ele>373</ele>
        <time>2022-07-04T15:38:15Z</time>
      </trkpt>
      <trkpt lat="42.61118" lon="2.41257">
        <ele>373</ele>
        <time>2022-07-04T15:38:24Z</time>
      </trkpt>
      <trkpt lat="42.61107" lon="2.41227">
        <ele>374</ele>
        <time>2022-07-04T15:38:57Z</time>
      </trkpt>
      <trkpt lat="42.61092" lon="2.41195">
        <ele>375</ele>
        <time>2022-07-04T15:39:34Z</time>
      </trkpt>
      <trkpt lat="42.61087" lon="2.41161">
        <ele>376</ele>
        <time>2022-07-04T15:40:08Z</time>
      </trkpt>
      <trkpt lat="42.61087" lon="2.41152">
        <ele>376</ele>
        <time>2022-07-04T15:40:17Z</time>
      </trkpt>
      <trkpt lat="42.61085" lon="2.41146">
        <ele>376</ele>
        <time>2022-07-04T15:40:23Z</time>
      </trkpt>
      <trkpt lat="42.61074" lon="2.41143">
        <ele>377</ele>
        <time>2022-07-04T15:40:38Z</time>
      </trkpt>
      <trkpt lat="42.61057" lon="2.41128">
        <ele>380</ele>
        <time>2022-07-04T15:41:05Z</time>
      </trkpt>
      <trkpt lat="42.61049" lon="2.41123">
        <ele>381</ele>
        <time>2022-07-04T15:41:17Z</time>
      </trkpt>
      <trkpt lat="42.61036" lon="2.41128">
        <ele>382</ele>
        <time>2022-07-04T15:41:35Z</time>
      </trkpt>
      <trkpt lat="42.61031" lon="2.41131">
        <ele>383</ele>
        <time>2022-07-04T15:41:42Z</time>
      </trkpt>
      <trkpt lat="42.61038" lon="2.41126">
        <ele>382</ele>
        <time>2022-07-04T15:41:53Z</time>
      </trkpt>
      <trkpt lat="42.61044" lon="2.4112">
        <ele>382</ele>
        <time>2022-07-04T15:42:03Z</time>
      </trkpt>
      <trkpt lat="42.61045" lon="2.41119">
        <ele>382</ele>
        <time>2022-07-04T15:42:05Z</time>
      </trkpt>
      <trkpt lat="42.61049" lon="2.41115">
        <ele>381</ele>
        <time>2022-07-04T15:42:11Z</time>
      </trkpt>
      <trkpt lat="42.61046" lon="2.41105">
        <ele>382</ele>
        <time>2022-07-04T15:42:22Z</time>
      </trkpt>
      <trkpt lat="42.61037" lon="2.41088">
        <ele>384</ele>
        <time>2022-07-04T15:42:42Z</time>
      </trkpt>
      <trkpt lat="42.61027" lon="2.41065">
        <ele>386</ele>
        <time>2022-07-04T15:43:09Z</time>
      </trkpt>
      <trkpt lat="42.61022" lon="2.41053">
        <ele>388</ele>
        <time>2022-07-04T15:43:22Z</time>
      </trkpt>
      <trkpt lat="42.61014" lon="2.41038">
        <ele>391</ele>
        <time>2022-07-04T15:43:40Z</time>
      </trkpt>
      <trkpt lat="42.61008" lon="2.4103">
        <ele>392</ele>
        <time>2022-07-04T15:43:51Z</time>
      </trkpt>
      <trkpt lat="42.61004" lon="2.41023">
        <ele>394</ele>
        <time>2022-07-04T15:44:00Z</time>
      </trkpt>
      <trkpt lat="42.60997" lon="2.4101">
        <ele>396</ele>
        <time>2022-07-04T15:44:16Z</time>
      </trkpt>
      <trkpt lat="42.60991" lon="2.41">
        <ele>398</ele>
        <time>2022-07-04T15:44:29Z</time>
      </trkpt>
      <trkpt lat="42.60985" lon="2.40993">
        <ele>399</ele>
        <time>2022-07-04T15:44:39Z</time>
      </trkpt>
      <trkpt lat="42.60979" lon="2.40983">
        <ele>400</ele>
        <time>2022-07-04T15:44:52Z</time>
      </trkpt>
      <trkpt lat="42.60975" lon="2.40974">
        <ele>401</ele>
        <time>2022-07-04T15:45:02Z</time>
      </trkpt>
      <trkpt lat="42.60972" lon="2.40969">
        <ele>402</ele>
        <time>2022-07-04T15:45:09Z</time>
      </trkpt>
      <trkpt lat="42.60961" lon="2.40948">
        <ele>405</ele>
        <time>2022-07-04T15:45:34Z</time>
      </trkpt>
      <trkpt lat="42.60958" lon="2.40938">
        <ele>406</ele>
        <time>2022-07-04T15:45:45Z</time>
      </trkpt>
      <trkpt lat="42.60956" lon="2.40936">
        <ele>407</ele>
        <time>2022-07-04T15:45:48Z</time>
      </trkpt>
      <trkpt lat="42.60954" lon="2.40933">
        <ele>407</ele>
        <time>2022-07-04T15:45:52Z</time>
      </trkpt>
      <trkpt lat="42.60951" lon="2.40929">
        <ele>408</ele>
        <time>2022-07-04T15:45:57Z</time>
      </trkpt>
      <trkpt lat="42.60943" lon="2.40926">
        <ele>410</ele>
        <time>2022-07-04T15:46:08Z</time>
      </trkpt>
      <trkpt lat="42.60926" lon="2.4092">
        <ele>414</ele>
        <time>2022-07-04T15:46:32Z</time>
      </trkpt>
      <trkpt lat="42.60923" lon="2.40919">
        <ele>414</ele>
        <time>2022-07-04T15:46:36Z</time>
      </trkpt>
      <trkpt lat="42.60922" lon="2.40921">
        <ele>414</ele>
        <time>2022-07-04T15:46:38Z</time>
      </trkpt>
      <trkpt lat="42.60922" lon="2.40919">
        <ele>415</ele>
        <time>2022-07-04T15:46:40Z</time>
      </trkpt>
      <trkpt lat="42.60922" lon="2.4092">
        <ele>415</ele>
        <time>2022-07-04T15:46:41Z</time>
      </trkpt>
      <trkpt lat="42.60917" lon="2.40921">
        <ele>415</ele>
        <time>2022-07-04T15:46:48Z</time>
      </trkpt>
      <trkpt lat="42.60903" lon="2.40921">
        <ele>417</ele>
        <time>2022-07-04T15:47:07Z</time>
      </trkpt>
      <trkpt lat="42.60887" lon="2.40923">
        <ele>419</ele>
        <time>2022-07-04T15:47:28Z</time>
      </trkpt>
      <trkpt lat="42.60881" lon="2.40925">
        <ele>420</ele>
        <time>2022-07-04T15:47:36Z</time>
      </trkpt>
      <trkpt lat="42.60878" lon="2.40926">
        <ele>420</ele>
        <time>2022-07-04T15:47:41Z</time>
      </trkpt>
      <trkpt lat="42.60872" lon="2.40925">
        <ele>421</ele>
        <time>2022-07-04T15:47:49Z</time>
      </trkpt>
      <trkpt lat="42.6087" lon="2.40925">
        <ele>421</ele>
        <time>2022-07-04T15:47:51Z</time>
      </trkpt>
      <trkpt lat="42.60863" lon="2.40924">
        <ele>422</ele>
        <time>2022-07-04T15:48:01Z</time>
      </trkpt>
      <trkpt lat="42.60854" lon="2.40914">
        <ele>424</ele>
        <time>2022-07-04T15:48:16Z</time>
      </trkpt>
      <trkpt lat="42.60843" lon="2.40908">
        <ele>426</ele>
        <time>2022-07-04T15:48:32Z</time>
      </trkpt>
      <trkpt lat="42.60831" lon="2.40907">
        <ele>427</ele>
        <time>2022-07-04T15:48:48Z</time>
      </trkpt>
      <trkpt lat="42.60821" lon="2.40917">
        <ele>428</ele>
        <time>2022-07-04T15:49:05Z</time>
      </trkpt>
      <trkpt lat="42.60816" lon="2.40922">
        <ele>428</ele>
        <time>2022-07-04T15:49:13Z</time>
      </trkpt>
      <trkpt lat="42.60802" lon="2.40945">
        <ele>428</ele>
        <time>2022-07-04T15:49:42Z</time>
      </trkpt>
      <trkpt lat="42.60794" lon="2.40952">
        <ele>429</ele>
        <time>2022-07-04T15:49:55Z</time>
      </trkpt>
      <trkpt lat="42.60754" lon="2.40969">
        <ele>433</ele>
        <time>2022-07-04T15:50:51Z</time>
      </trkpt>
      <trkpt lat="42.60745" lon="2.4097">
        <ele>435</ele>
        <time>2022-07-04T15:51:03Z</time>
      </trkpt>
      <trkpt lat="42.60726" lon="2.40975">
        <ele>437</ele>
        <time>2022-07-04T15:51:29Z</time>
      </trkpt>
      <trkpt lat="42.60724" lon="2.40976">
        <ele>438</ele>
        <time>2022-07-04T15:51:32Z</time>
      </trkpt>
      <trkpt lat="42.60716" lon="2.4098">
        <ele>439</ele>
        <time>2022-07-04T15:51:43Z</time>
      </trkpt>
      <trkpt lat="42.60706" lon="2.40981">
        <ele>441</ele>
        <time>2022-07-04T15:51:56Z</time>
      </trkpt>
      <trkpt lat="42.60695" lon="2.4099">
        <ele>443</ele>
        <time>2022-07-04T15:52:13Z</time>
      </trkpt>
      <trkpt lat="42.60685" lon="2.40995">
        <ele>445</ele>
        <time>2022-07-04T15:52:28Z</time>
      </trkpt>
      <trkpt lat="42.60678" lon="2.41001">
        <ele>446</ele>
        <time>2022-07-04T15:52:39Z</time>
      </trkpt>
      <trkpt lat="42.60675" lon="2.41001">
        <ele>447</ele>
        <time>2022-07-04T15:52:43Z</time>
      </trkpt>
      <trkpt lat="42.60661" lon="2.41006">
        <ele>448</ele>
        <time>2022-07-04T15:53:02Z</time>
      </trkpt>
      <trkpt lat="42.60649" lon="2.41014">
        <ele>449</ele>
        <time>2022-07-04T15:53:20Z</time>
      </trkpt>
      <trkpt lat="42.60637" lon="2.41018">
        <ele>450</ele>
        <time>2022-07-04T15:53:36Z</time>
      </trkpt>
      <trkpt lat="42.60631" lon="2.41019">
        <ele>450</ele>
        <time>2022-07-04T15:53:44Z</time>
      </trkpt>
      <trkpt lat="42.60613" lon="2.41023">
        <ele>451</ele>
        <time>2022-07-04T15:54:09Z</time>
      </trkpt>
      <trkpt lat="42.60607" lon="2.41021">
        <ele>451</ele>
        <time>2022-07-04T15:54:17Z</time>
      </trkpt>
      <trkpt lat="42.60608" lon="2.41019">
        <ele>451</ele>
        <time>2022-07-04T15:54:19Z</time>
      </trkpt>
      <trkpt lat="42.60605" lon="2.4102">
        <ele>452</ele>
        <time>2022-07-04T15:54:24Z</time>
      </trkpt>
      <trkpt lat="42.60598" lon="2.41025">
        <ele>452</ele>
        <time>2022-07-04T15:54:34Z</time>
      </trkpt>
      <trkpt lat="42.60591" lon="2.41025">
        <ele>452</ele>
        <time>2022-07-04T15:54:43Z</time>
      </trkpt>
      <trkpt lat="42.60587" lon="2.41023">
        <ele>453</ele>
        <time>2022-07-04T15:54:49Z</time>
      </trkpt>
      <trkpt lat="42.60562" lon="2.41017">
        <ele>453</ele>
        <time>2022-07-04T15:55:23Z</time>
      </trkpt>
      <trkpt lat="42.60537" lon="2.41016">
        <ele>454</ele>
        <time>2022-07-04T15:55:56Z</time>
      </trkpt>
      <trkpt lat="42.60516" lon="2.41017">
        <ele>455</ele>
        <time>2022-07-04T15:56:24Z</time>
      </trkpt>
      <trkpt lat="42.60487" lon="2.4102">
        <ele>456</ele>
        <time>2022-07-04T15:57:03Z</time>
      </trkpt>
      <trkpt lat="42.60456" lon="2.4102">
        <ele>458</ele>
        <time>2022-07-04T15:57:45Z</time>
      </trkpt>
      <trkpt lat="42.60455" lon="2.4102">
        <ele>458</ele>
        <time>2022-07-04T15:57:46Z</time>
      </trkpt>
      <trkpt lat="42.60429" lon="2.41019">
        <ele>459</ele>
        <time>2022-07-04T15:58:21Z</time>
      </trkpt>
      <trkpt lat="42.60403" lon="2.41022">
        <ele>461</ele>
        <time>2022-07-04T15:58:55Z</time>
      </trkpt>
      <trkpt lat="42.6038" lon="2.41029">
        <ele>462</ele>
        <time>2022-07-04T15:59:27Z</time>
      </trkpt>
      <trkpt lat="42.6036" lon="2.41028">
        <ele>462</ele>
        <time>2022-07-04T15:59:54Z</time>
      </trkpt>
      <trkpt lat="42.60337" lon="2.41027">
        <ele>463</ele>
        <time>2022-07-04T16:00:24Z</time>
      </trkpt>
      <trkpt lat="42.60316" lon="2.41026">
        <ele>465</ele>
        <time>2022-07-04T16:00:52Z</time>
      </trkpt>
      <trkpt lat="42.60291" lon="2.41024">
        <ele>466</ele>
        <time>2022-07-04T16:01:26Z</time>
      </trkpt>
      <trkpt lat="42.60269" lon="2.41023">
        <ele>468</ele>
        <time>2022-07-04T16:01:55Z</time>
      </trkpt>
      <trkpt lat="42.60266" lon="2.41025">
        <ele>469</ele>
        <time>2022-07-04T16:02:00Z</time>
      </trkpt>
      <trkpt lat="42.60245" lon="2.41024">
        <ele>470</ele>
        <time>2022-07-04T16:02:28Z</time>
      </trkpt>
      <trkpt lat="42.60237" lon="2.41025">
        <ele>472</ele>
        <time>2022-07-04T16:02:38Z</time>
      </trkpt>
      <trkpt lat="42.60217" lon="2.41026">
        <ele>474</ele>
        <time>2022-07-04T16:03:05Z</time>
      </trkpt>
      <trkpt lat="42.602" lon="2.41024">
        <ele>477</ele>
        <time>2022-07-04T16:03:28Z</time>
      </trkpt>
      <trkpt lat="42.60179" lon="2.41017">
        <ele>479</ele>
        <time>2022-07-04T16:03:57Z</time>
      </trkpt>
      <trkpt lat="42.60163" lon="2.41015">
        <ele>481</ele>
        <time>2022-07-04T16:04:18Z</time>
      </trkpt>
      <trkpt lat="42.60136" lon="2.41014">
        <ele>486</ele>
        <time>2022-07-04T16:04:54Z</time>
      </trkpt>
      <trkpt lat="42.60129" lon="2.41014">
        <ele>487</ele>
        <time>2022-07-04T16:05:04Z</time>
      </trkpt>
      <trkpt lat="42.60128" lon="2.41015">
        <ele>488</ele>
        <time>2022-07-04T16:05:05Z</time>
      </trkpt>
      <trkpt lat="42.60124" lon="2.41013">
        <ele>488</ele>
        <time>2022-07-04T16:05:11Z</time>
      </trkpt>
      <trkpt lat="42.60117" lon="2.41012">
        <ele>489</ele>
        <time>2022-07-04T16:05:20Z</time>
      </trkpt>
      <trkpt lat="42.60104" lon="2.41014">
        <ele>492</ele>
        <time>2022-07-04T16:05:38Z</time>
      </trkpt>
      <trkpt lat="42.60093" lon="2.41021">
        <ele>494</ele>
        <time>2022-07-04T16:05:54Z</time>
      </trkpt>
      <trkpt lat="42.60074" lon="2.41019">
        <ele>497</ele>
        <time>2022-07-04T16:06:19Z</time>
      </trkpt>
      <trkpt lat="42.60074" lon="2.4102">
        <ele>497</ele>
        <time>2022-07-04T16:06:20Z</time>
      </trkpt>
      <trkpt lat="42.60075" lon="2.41021">
        <ele>497</ele>
        <time>2022-07-04T16:06:22Z</time>
      </trkpt>
      <trkpt lat="42.60074" lon="2.41021">
        <ele>497</ele>
        <time>2022-07-04T16:06:23Z</time>
      </trkpt>
      <trkpt lat="42.60065" lon="2.41015">
        <ele>499</ele>
        <time>2022-07-04T16:06:37Z</time>
      </trkpt>
      <trkpt lat="42.60054" lon="2.41013">
        <ele>500</ele>
        <time>2022-07-04T16:06:52Z</time>
      </trkpt>
      <trkpt lat="42.60042" lon="2.41015">
        <ele>503</ele>
        <time>2022-07-04T16:07:08Z</time>
      </trkpt>
      <trkpt lat="42.60015" lon="2.41014">
        <ele>507</ele>
        <time>2022-07-04T16:07:44Z</time>
      </trkpt>
      <trkpt lat="42.60002" lon="2.41011">
        <ele>509</ele>
        <time>2022-07-04T16:08:01Z</time>
      </trkpt>
      <trkpt lat="42.59984" lon="2.41012">
        <ele>512</ele>
        <time>2022-07-04T16:08:25Z</time>
      </trkpt>
      <trkpt lat="42.59968" lon="2.41016">
        <ele>514</ele>
        <time>2022-07-04T16:08:47Z</time>
      </trkpt>
      <trkpt lat="42.59935" lon="2.41005">
        <ele>520</ele>
        <time>2022-07-04T16:09:32Z</time>
      </trkpt>
      <trkpt lat="42.59918" lon="2.41">
        <ele>523</ele>
        <time>2022-07-04T16:09:56Z</time>
      </trkpt>
      <trkpt lat="42.59903" lon="2.40991">
        <ele>523</ele>
        <time>2022-07-04T16:10:18Z</time>
      </trkpt>
      <trkpt lat="42.5989" lon="2.40984">
        <ele>523</ele>
        <time>2022-07-04T16:10:36Z</time>
      </trkpt>
      <trkpt lat="42.59876" lon="2.40976">
        <ele>524</ele>
        <time>2022-07-04T16:10:56Z</time>
      </trkpt>
      <trkpt lat="42.59863" lon="2.40962">
        <ele>524</ele>
        <time>2022-07-04T16:11:19Z</time>
      </trkpt>
      <trkpt lat="42.59849" lon="2.40946">
        <ele>525</ele>
        <time>2022-07-04T16:11:43Z</time>
      </trkpt>
      <trkpt lat="42.59832" lon="2.40929">
        <ele>526</ele>
        <time>2022-07-04T16:12:11Z</time>
      </trkpt>
      <trkpt lat="42.59816" lon="2.4092">
        <ele>526</ele>
        <time>2022-07-04T16:12:34Z</time>
      </trkpt>
      <trkpt lat="42.59775" lon="2.40908">
        <ele>524</ele>
        <time>2022-07-04T16:13:30Z</time>
      </trkpt>
      <trkpt lat="42.59753" lon="2.40901">
        <ele>523</ele>
        <time>2022-07-04T16:14:00Z</time>
      </trkpt>
      <trkpt lat="42.5973" lon="2.40893">
        <ele>521</ele>
        <time>2022-07-04T16:14:32Z</time>
      </trkpt>
      <trkpt lat="42.59714" lon="2.40883">
        <ele>519</ele>
        <time>2022-07-04T16:14:56Z</time>
      </trkpt>
      <trkpt lat="42.59697" lon="2.40874">
        <ele>518</ele>
        <time>2022-07-04T16:15:20Z</time>
      </trkpt>
      <trkpt lat="42.59674" lon="2.40864">
        <ele>517</ele>
        <time>2022-07-04T16:15:52Z</time>
      </trkpt>
      <trkpt lat="42.59654" lon="2.40858">
        <ele>517</ele>
        <time>2022-07-04T16:16:19Z</time>
      </trkpt>
      <trkpt lat="42.59647" lon="2.40857">
        <ele>516</ele>
        <time>2022-07-04T16:16:29Z</time>
      </trkpt>
      <trkpt lat="42.59633" lon="2.40855">
        <ele>516</ele>
        <time>2022-07-04T16:16:48Z</time>
      </trkpt>
      <trkpt lat="42.59632" lon="2.40856">
        <ele>516</ele>
        <time>2022-07-04T16:16:49Z</time>
      </trkpt>
      <trkpt lat="42.59631" lon="2.40857">
        <ele>516</ele>
        <time>2022-07-04T16:16:51Z</time>
      </trkpt>
      <trkpt lat="42.59629" lon="2.40864">
        <ele>516</ele>
        <time>2022-07-04T16:16:58Z</time>
      </trkpt>
      <trkpt lat="42.59628" lon="2.40864">
        <ele>515</ele>
        <time>2022-07-04T16:17:00Z</time>
      </trkpt>
      <trkpt lat="42.59626" lon="2.40864">
        <ele>515</ele>
        <time>2022-07-04T16:17:02Z</time>
      </trkpt>
      <trkpt lat="42.59619" lon="2.40866">
        <ele>515</ele>
        <time>2022-07-04T16:17:12Z</time>
      </trkpt>
      <trkpt lat="42.59614" lon="2.40868">
        <ele>515</ele>
        <time>2022-07-04T16:17:19Z</time>
      </trkpt>
      <trkpt lat="42.5961" lon="2.40868">
        <ele>515</ele>
        <time>2022-07-04T16:17:24Z</time>
      </trkpt>
      <trkpt lat="42.59605" lon="2.40866">
        <ele>514</ele>
        <time>2022-07-04T16:17:31Z</time>
      </trkpt>
      <trkpt lat="42.59592" lon="2.40866">
        <ele>514</ele>
        <time>2022-07-04T16:17:49Z</time>
      </trkpt>
      <trkpt lat="42.59583" lon="2.40872">
        <ele>513</ele>
        <time>2022-07-04T16:18:02Z</time>
      </trkpt>
      <trkpt lat="42.59584" lon="2.40872">
        <ele>513</ele>
        <time>2022-07-04T16:18:03Z</time>
      </trkpt>
      <trkpt lat="42.59573" lon="2.40877">
        <ele>512</ele>
        <time>2022-07-04T16:18:19Z</time>
      </trkpt>
      <trkpt lat="42.59568" lon="2.40881">
        <ele>512</ele>
        <time>2022-07-04T16:18:26Z</time>
      </trkpt>
      <trkpt lat="42.5956" lon="2.40885">
        <ele>511</ele>
        <time>2022-07-04T16:18:38Z</time>
      </trkpt>
      <trkpt lat="42.59555" lon="2.40888">
        <ele>511</ele>
        <time>2022-07-04T16:18:45Z</time>
      </trkpt>
      <trkpt lat="42.5955" lon="2.4089">
        <ele>510</ele>
        <time>2022-07-04T16:18:52Z</time>
      </trkpt>
      <trkpt lat="42.59539" lon="2.40898">
        <ele>510</ele>
        <time>2022-07-04T16:19:09Z</time>
      </trkpt>
      <trkpt lat="42.59533" lon="2.40904">
        <ele>511</ele>
        <time>2022-07-04T16:19:19Z</time>
      </trkpt>
      <trkpt lat="42.5952" lon="2.40914">
        <ele>511</ele>
        <time>2022-07-04T16:19:39Z</time>
      </trkpt>
      <trkpt lat="42.59511" lon="2.40923">
        <ele>512</ele>
        <time>2022-07-04T16:19:54Z</time>
      </trkpt>
      <trkpt lat="42.59501" lon="2.40931">
        <ele>512</ele>
        <time>2022-07-04T16:20:09Z</time>
      </trkpt>
      <trkpt lat="42.59487" lon="2.40939">
        <ele>512</ele>
        <time>2022-07-04T16:20:29Z</time>
      </trkpt>
      <trkpt lat="42.59483" lon="2.40943">
        <ele>512</ele>
        <time>2022-07-04T16:20:36Z</time>
      </trkpt>
      <trkpt lat="42.59478" lon="2.40946">
        <ele>512</ele>
        <time>2022-07-04T16:20:43Z</time>
      </trkpt>
      <trkpt lat="42.5947" lon="2.40951">
        <ele>512</ele>
        <time>2022-07-04T16:20:55Z</time>
      </trkpt>
      <trkpt lat="42.59466" lon="2.40955">
        <ele>513</ele>
        <time>2022-07-04T16:21:02Z</time>
      </trkpt>
      <trkpt lat="42.59463" lon="2.40961">
        <ele>513</ele>
        <time>2022-07-04T16:21:09Z</time>
      </trkpt>
      <trkpt lat="42.59462" lon="2.40964">
        <ele>514</ele>
        <time>2022-07-04T16:21:12Z</time>
      </trkpt>
      <trkpt lat="42.59468" lon="2.40981">
        <ele>516</ele>
        <time>2022-07-04T16:21:30Z</time>
      </trkpt>
      <trkpt lat="42.5947" lon="2.40995">
        <ele>517</ele>
        <time>2022-07-04T16:21:44Z</time>
      </trkpt>
      <trkpt lat="42.59472" lon="2.41001">
        <ele>517</ele>
        <time>2022-07-04T16:21:51Z</time>
      </trkpt>
      <trkpt lat="42.59483" lon="2.41045">
        <ele>515</ele>
        <time>2022-07-04T16:22:37Z</time>
      </trkpt>
      <trkpt lat="42.59484" lon="2.41069">
        <ele>513</ele>
        <time>2022-07-04T16:23:00Z</time>
      </trkpt>
      <trkpt lat="42.59484" lon="2.4109">
        <ele>512</ele>
        <time>2022-07-04T16:23:21Z</time>
      </trkpt>
      <trkpt lat="42.59487" lon="2.41116">
        <ele>509</ele>
        <time>2022-07-04T16:23:47Z</time>
      </trkpt>
      <trkpt lat="42.59491" lon="2.41139">
        <ele>506</ele>
        <time>2022-07-04T16:24:10Z</time>
      </trkpt>
      <trkpt lat="42.59491" lon="2.41146">
        <ele>505</ele>
        <time>2022-07-04T16:24:17Z</time>
      </trkpt>
      <trkpt lat="42.59489" lon="2.41166">
        <ele>503</ele>
        <time>2022-07-04T16:24:37Z</time>
      </trkpt>
      <trkpt lat="42.59483" lon="2.41185">
        <ele>501</ele>
        <time>2022-07-04T16:24:57Z</time>
      </trkpt>
      <trkpt lat="42.59477" lon="2.41223">
        <ele>497</ele>
        <time>2022-07-04T16:25:35Z</time>
      </trkpt>
      <trkpt lat="42.59473" lon="2.41243">
        <ele>495</ele>
        <time>2022-07-04T16:25:55Z</time>
      </trkpt>
      <trkpt lat="42.59465" lon="2.41266">
        <ele>493</ele>
        <time>2022-07-04T16:26:20Z</time>
      </trkpt>
      <trkpt lat="42.59465" lon="2.41278">
        <ele>491</ele>
        <time>2022-07-04T16:26:32Z</time>
      </trkpt>
      <trkpt lat="42.59467" lon="2.4129">
        <ele>489</ele>
        <time>2022-07-04T16:26:44Z</time>
      </trkpt>
      <trkpt lat="42.59463" lon="2.41315">
        <ele>486</ele>
        <time>2022-07-04T16:27:09Z</time>
      </trkpt>
      <trkpt lat="42.59461" lon="2.41336">
        <ele>484</ele>
        <time>2022-07-04T16:27:30Z</time>
      </trkpt>
      <trkpt lat="42.59461" lon="2.41341">
        <ele>483</ele>
        <time>2022-07-04T16:27:35Z</time>
      </trkpt>
      <trkpt lat="42.59456" lon="2.4135">
        <ele>482</ele>
        <time>2022-07-04T16:27:46Z</time>
      </trkpt>
      <trkpt lat="42.59449" lon="2.41371">
        <ele>480</ele>
        <time>2022-07-04T16:28:09Z</time>
      </trkpt>
      <trkpt lat="42.59446" lon="2.41387">
        <ele>478</ele>
        <time>2022-07-04T16:28:25Z</time>
      </trkpt>
      <trkpt lat="42.59441" lon="2.41409">
        <ele>476</ele>
        <time>2022-07-04T16:28:48Z</time>
      </trkpt>
      <trkpt lat="42.59435" lon="2.41437">
        <ele>472</ele>
        <time>2022-07-04T16:29:16Z</time>
      </trkpt>
      <trkpt lat="42.59431" lon="2.41444">
        <ele>472</ele>
        <time>2022-07-04T16:29:25Z</time>
      </trkpt>
      <trkpt lat="42.59431" lon="2.41466">
        <ele>467</ele>
        <time>2022-07-04T16:29:47Z</time>
      </trkpt>
      <trkpt lat="42.5943" lon="2.41483">
        <ele>463</ele>
        <time>2022-07-04T16:30:03Z</time>
      </trkpt>
      <trkpt lat="42.5943" lon="2.41485">
        <ele>463</ele>
        <time>2022-07-04T16:30:05Z</time>
      </trkpt>
      <trkpt lat="42.59425" lon="2.41495">
        <ele>462</ele>
        <time>2022-07-04T16:30:17Z</time>
      </trkpt>
      <trkpt lat="42.59414" lon="2.41518">
        <ele>458</ele>
        <time>2022-07-04T16:30:44Z</time>
      </trkpt>
      <trkpt lat="42.59412" lon="2.41525">
        <ele>457</ele>
        <time>2022-07-04T16:30:52Z</time>
      </trkpt>
      <trkpt lat="42.59407" lon="2.41532">
        <ele>457</ele>
        <time>2022-07-04T16:31:01Z</time>
      </trkpt>
      <trkpt lat="42.59402" lon="2.41537">
        <ele>456</ele>
        <time>2022-07-04T16:31:09Z</time>
      </trkpt>
      <trkpt lat="42.59395" lon="2.41542">
        <ele>457</ele>
        <time>2022-07-04T16:31:20Z</time>
      </trkpt>
      <trkpt lat="42.59397" lon="2.41544">
        <ele>456</ele>
        <time>2022-07-04T16:31:23Z</time>
      </trkpt>
      <trkpt lat="42.59399" lon="2.41545">
        <ele>455</ele>
        <time>2022-07-04T16:31:26Z</time>
      </trkpt>
      <trkpt lat="42.594" lon="2.41552">
        <ele>453</ele>
        <time>2022-07-04T16:31:33Z</time>
      </trkpt>
      <trkpt lat="42.59405" lon="2.41558">
        <ele>451</ele>
        <time>2022-07-04T16:31:42Z</time>
      </trkpt>
      <trkpt lat="42.59417" lon="2.41564">
        <ele>447</ele>
        <time>2022-07-04T16:31:59Z</time>
      </trkpt>
      <trkpt lat="42.5943" lon="2.41557">
        <ele>448</ele>
        <time>2022-07-04T16:32:18Z</time>
      </trkpt>
      <trkpt lat="42.59433" lon="2.41561">
        <ele>447</ele>
        <time>2022-07-04T16:32:23Z</time>
      </trkpt>
      <trkpt lat="42.59423" lon="2.41575">
        <ele>445</ele>
        <time>2022-07-04T16:32:43Z</time>
      </trkpt>
      <trkpt lat="42.5942" lon="2.41579">
        <ele>444</ele>
        <time>2022-07-04T16:32:48Z</time>
      </trkpt>
      <trkpt lat="42.59405" lon="2.4159">
        <ele>445</ele>
        <time>2022-07-04T16:33:11Z</time>
      </trkpt>
      <trkpt lat="42.59402" lon="2.41603">
        <ele>446</ele>
        <time>2022-07-04T16:33:24Z</time>
      </trkpt>
      <trkpt lat="42.59401" lon="2.41627">
        <ele>446</ele>
        <time>2022-07-04T16:33:48Z</time>
      </trkpt>
      <trkpt lat="42.594" lon="2.4163">
        <ele>446</ele>
        <time>2022-07-04T16:33:51Z</time>
      </trkpt>
      <trkpt lat="42.59398" lon="2.41624">
        <ele>447</ele>
        <time>2022-07-04T16:33:58Z</time>
      </trkpt>
      <trkpt lat="42.59394" lon="2.41629">
        <ele>447</ele>
        <time>2022-07-04T16:34:05Z</time>
      </trkpt>
      <trkpt lat="42.59396" lon="2.41647">
        <ele>447</ele>
        <time>2022-07-04T16:34:23Z</time>
      </trkpt>
      <trkpt lat="42.59408" lon="2.4166">
        <ele>446</ele>
        <time>2022-07-04T16:34:43Z</time>
      </trkpt>
      <trkpt lat="42.59411" lon="2.41661">
        <ele>445</ele>
        <time>2022-07-04T16:34:47Z</time>
      </trkpt>
      <trkpt lat="42.59424" lon="2.4166">
        <ele>445</ele>
        <time>2022-07-04T16:35:05Z</time>
      </trkpt>
      <trkpt lat="42.59448" lon="2.4165">
        <ele>446</ele>
        <time>2022-07-04T16:35:38Z</time>
      </trkpt>
      <trkpt lat="42.59458" lon="2.41638">
        <ele>445</ele>
        <time>2022-07-04T16:35:56Z</time>
      </trkpt>
      <trkpt lat="42.59473" lon="2.41626">
        <ele>445</ele>
        <time>2022-07-04T16:36:19Z</time>
      </trkpt>
      <trkpt lat="42.59482" lon="2.41615">
        <ele>444</ele>
        <time>2022-07-04T16:36:35Z</time>
      </trkpt>
      <trkpt lat="42.5949" lon="2.416">
        <ele>443</ele>
        <time>2022-07-04T16:36:54Z</time>
      </trkpt>
      <trkpt lat="42.59493" lon="2.41595">
        <ele>442</ele>
        <time>2022-07-04T16:37:00Z</time>
      </trkpt>
    </trkseg>
  </trk>
</gpx>